Qena, Egypt
Current Conditions -  °F | °C
As of 8:00 PM on Thursday 27 Nov 2014 (Local Time) from HELX Reporting Station
Clear Clear  
Wind Chill: 64°   Ceiling: Unl
Heat Index: 64°   Visibility: 6mi
Dew Point: 50°   Wind: 2mph
Humidity: 59%   Direction: 250°WSW
Pressure: 30.09"   Gusts: NA
Location:  26.15°N, 32.72°E
Report Text: HELX 271800Z 25002KT CAVOK 18/10 Q1019 NOSIG
Loading
Personal Weather Stations






























Interactive Weather Map New forecast layout! Learn more

10-Day Weather Forecast

Advertisements
Track Severe Weather on mobile